createdAt,value
2022-09-28T00:00:19.099Z,0
2022-09-28T00:01:19.214Z,0
2022-09-28T00:02:19.178Z,0
2022-09-28T00:03:19.095Z,0
2022-09-28T00:04:19.112Z,0
2022-09-28T00:05:19.091Z,0
2022-09-28T00:06:19.129Z,0
2022-09-28T00:07:19.107Z,0
2022-09-28T00:08:19.307Z,0
2022-09-28T00:09:19.082Z,0
2022-09-28T00:10:19.088Z,0
2022-09-28T00:11:19.109Z,0
2022-09-28T00:12:19.096Z,0
2022-09-28T00:13:19.097Z,0
2022-09-28T00:14:19.103Z,0
2022-09-28T00:15:19.105Z,0
2022-09-28T00:16:19.128Z,0
2022-09-28T00:17:19.104Z,0
2022-09-28T00:18:19.092Z,0
2022-09-28T00:19:19.105Z,0
2022-09-28T00:20:19.083Z,0
2022-09-28T00:21:19.098Z,0
2022-09-28T00:22:19.098Z,0
2022-09-28T00:23:19.103Z,0
2022-09-28T00:24:19.935Z,0
2022-09-28T00:25:19.089Z,0
2022-09-28T00:26:19.092Z,0
2022-09-28T00:27:19.186Z,0
2022-09-28T00:28:19.208Z,0
2022-09-28T00:29:19.183Z,0
2022-09-28T00:30:19.065Z,0
2022-09-28T00:31:19.125Z,0
2022-09-28T00:32:19.334Z,0
2022-09-28T00:33:19.085Z,0
2022-09-28T00:34:19.268Z,0
2022-09-28T00:35:19.108Z,0
2022-09-28T00:36:19.102Z,0
2022-09-28T00:37:19.104Z,0
2022-09-28T00:38:19.143Z,0
2022-09-28T00:39:19.235Z,0
2022-09-28T00:40:19.123Z,0
2022-09-28T00:41:19.086Z,0
2022-09-28T00:42:19.088Z,0
2022-09-28T00:43:19.137Z,0
2022-09-28T00:44:19.097Z,0
2022-09-28T00:45:19.097Z,0
2022-09-28T00:46:19.148Z,0
2022-09-28T00:47:19.097Z,0
2022-09-28T00:48:19.112Z,0
2022-09-28T00:49:19.121Z,0
2022-09-28T00:50:19.104Z,0
2022-09-28T00:51:19.097Z,0
2022-09-28T00:52:19.103Z,0
2022-09-28T00:53:19.098Z,0
2022-09-28T00:54:19.118Z,0
2022-09-28T00:55:19.095Z,0
2022-09-28T00:56:19.104Z,0
2022-09-28T00:57:19.104Z,0
2022-09-28T00:58:19.113Z,0
2022-09-28T00:59:19.131Z,0
2022-09-28T01:00:19.123Z,0
2022-09-28T01:01:19.373Z,0
2022-09-28T01:02:19.149Z,0
2022-09-28T01:03:19.102Z,0
2022-09-28T01:04:19.101Z,0
2022-09-28T01:05:19.105Z,0
2022-09-28T01:06:19.094Z,0
2022-09-28T01:07:19.092Z,0
2022-09-28T01:08:19.100Z,0
2022-09-28T01:09:19.112Z,0
2022-09-28T01:10:19.085Z,0
2022-09-28T01:11:19.116Z,0
2022-09-28T01:12:19.107Z,0
2022-09-28T01:13:19.095Z,0
2022-09-28T01:14:19.102Z,0
2022-09-28T01:15:19.099Z,0
2022-09-28T01:16:19.201Z,0
2022-09-28T01:17:19.101Z,0
2022-09-28T01:18:19.109Z,0
2022-09-28T01:19:19.095Z,0
2022-09-28T01:20:19.097Z,0
2022-09-28T01:21:19.132Z,0
2022-09-28T01:22:19.100Z,0
2022-09-28T01:23:19.123Z,0
2022-09-28T01:24:19.084Z,0
2022-09-28T01:25:19.087Z,0
2022-09-28T01:26:19.098Z,0
2022-09-28T01:27:19.076Z,0
2022-09-28T01:28:19.141Z,0
2022-09-28T01:29:19.094Z,0
2022-09-28T01:30:19.090Z,0
2022-09-28T01:31:19.298Z,0
2022-09-28T01:32:19.092Z,0
2022-09-28T01:33:19.090Z,0
2022-09-28T01:34:19.096Z,0
2022-09-28T01:35:19.097Z,0
2022-09-28T01:36:19.093Z,0
2022-09-28T01:37:19.112Z,0
2022-09-28T01:38:19.095Z,0
2022-09-28T01:39:19.087Z,0
2022-09-28T01:40:19.116Z,0
2022-09-28T01:41:19.091Z,0
2022-09-28T01:42:19.091Z,0
2022-09-28T01:43:19.103Z,0
2022-09-28T01:44:19.089Z,0
2022-09-28T01:45:19.111Z,0
2022-09-28T01:46:19.154Z,0
2022-09-28T01:47:19.079Z,0
2022-09-28T01:48:19.185Z,0
2022-09-28T01:49:19.185Z,0
2022-09-28T01:50:19.165Z,0
2022-09-28T01:51:19.159Z,0
2022-09-28T01:52:19.488Z,0
2022-09-28T01:53:19.144Z,0
2022-09-28T01:54:19.445Z,0
2022-09-28T01:55:19.325Z,0
2022-09-28T01:56:19.098Z,0
2022-09-28T01:57:19.160Z,0
2022-09-28T01:58:19.108Z,0
2022-09-28T01:59:19.199Z,0
2022-09-28T02:00:19.111Z,0
2022-09-28T02:01:19.267Z,0
2022-09-28T02:02:19.137Z,0
2022-09-28T02:03:19.220Z,0
2022-09-28T02:04:19.501Z,0
2022-09-28T02:05:19.074Z,0
2022-09-28T02:06:19.431Z,0
2022-09-28T02:07:19.064Z,0
2022-09-28T02:08:19.183Z,0
2022-09-28T02:09:19.395Z,0
2022-09-28T02:10:19.174Z,0
2022-09-28T02:11:19.071Z,0
2022-09-28T02:12:19.187Z,0
2022-09-28T02:13:19.527Z,0
2022-09-28T02:14:19.098Z,0
2022-09-28T02:15:19.273Z,0
2022-09-28T02:16:19.144Z,0
2022-09-28T02:17:19.788Z,0
2022-09-28T02:18:19.238Z,0
2022-09-28T02:19:19.154Z,0
2022-09-28T02:20:19.155Z,0
2022-09-28T02:21:19.524Z,0
2022-09-28T02:22:19.571Z,0
2022-09-28T02:23:19.131Z,0
2022-09-28T02:24:21.493Z,0
2022-09-28T02:25:19.094Z,0
2022-09-28T02:26:19.104Z,0
2022-09-28T02:27:19.117Z,0
2022-09-28T02:28:19.140Z,0
2022-09-28T02:29:19.197Z,0
2022-09-28T02:30:19.102Z,0
2022-09-28T02:31:19.114Z,0
2022-09-28T02:32:19.092Z,0
2022-09-28T02:33:19.120Z,0
2022-09-28T02:34:19.093Z,0
2022-09-28T02:35:19.096Z,0
2022-09-28T02:36:19.108Z,0
2022-09-28T02:37:19.096Z,0
2022-09-28T02:38:19.139Z,0
2022-09-28T02:39:19.201Z,0
2022-09-28T02:40:19.139Z,0
2022-09-28T02:41:19.119Z,0
2022-09-28T02:42:19.101Z,0
2022-09-28T02:43:19.140Z,0
2022-09-28T02:44:19.079Z,0
2022-09-28T02:45:19.094Z,0
2022-09-28T02:46:19.199Z,0
2022-09-28T02:47:19.089Z,0
2022-09-28T02:48:27.270Z,0
2022-09-28T02:49:22.014Z,0
2022-09-28T02:50:19.107Z,0
2022-09-28T02:51:19.249Z,0
2022-09-28T02:52:19.111Z,0
2022-09-28T02:53:19.089Z,0
2022-09-28T02:54:19.101Z,0
2022-09-28T02:55:19.109Z,0
2022-09-28T02:56:19.093Z,0
2022-09-28T02:57:19.097Z,0
2022-09-28T02:58:19.103Z,0
2022-09-28T02:59:19.095Z,0
2022-09-28T03:00:19.090Z,0
2022-09-28T03:01:19.147Z,0
2022-09-28T03:02:19.161Z,0
2022-09-28T03:03:19.109Z,0
2022-09-28T03:04:19.086Z,0
2022-09-28T03:05:19.092Z,0
2022-09-28T03:06:19.094Z,0
2022-09-28T03:07:19.088Z,0
2022-09-28T03:08:19.102Z,0
2022-09-28T03:09:19.094Z,0
2022-09-28T03:10:19.091Z,0
2022-09-28T03:11:19.089Z,0
2022-09-28T03:12:19.083Z,0
2022-09-28T03:13:19.112Z,0
2022-09-28T03:14:19.089Z,0
2022-09-28T03:15:19.093Z,0
2022-09-28T03:16:19.135Z,0
2022-09-28T03:17:19.095Z,0
2022-09-28T03:18:19.133Z,0
2022-09-28T03:19:19.100Z,0
2022-09-28T03:20:19.093Z,0
2022-09-28T03:21:19.093Z,0
2022-09-28T03:22:19.104Z,0
2022-09-28T03:23:24.600Z,0
2022-09-28T03:24:19.103Z,0
2022-09-28T03:25:19.097Z,0
2022-09-28T03:26:19.095Z,0
2022-09-28T03:27:19.093Z,0
2022-09-28T03:28:19.096Z,0
2022-09-28T03:29:19.176Z,0
2022-09-28T03:30:19.087Z,0
2022-09-28T03:31:19.184Z,0
2022-09-28T03:32:19.101Z,0
2022-09-28T03:33:19.087Z,0
2022-09-28T03:34:19.090Z,0
2022-09-28T03:35:19.087Z,0
2022-09-28T03:36:19.103Z,0
2022-09-28T03:37:19.191Z,0
2022-09-28T03:38:19.089Z,0
2022-09-28T03:39:19.110Z,0
2022-09-28T03:40:19.137Z,0
2022-09-28T03:41:19.075Z,0
2022-09-28T03:42:19.173Z,0
2022-09-28T03:43:19.068Z,0
2022-09-28T03:44:19.189Z,0
2022-09-28T03:45:19.068Z,0
2022-09-28T03:46:19.408Z,0
2022-09-28T03:47:19.413Z,0
2022-09-28T03:48:23.175Z,0
2022-09-28T03:49:19.487Z,0
2022-09-28T03:50:19.101Z,0
2022-09-28T03:51:19.087Z,0
2022-09-28T03:52:19.100Z,0
2022-09-28T03:53:19.091Z,0
2022-09-28T03:54:19.091Z,0
2022-09-28T03:55:19.105Z,0
2022-09-28T03:56:19.094Z,0
2022-09-28T03:57:19.104Z,0
2022-09-28T03:58:19.105Z,0
2022-09-28T03:59:19.108Z,0
2022-09-28T04:00:19.105Z,0
2022-09-28T04:01:19.151Z,0
2022-09-28T04:02:19.181Z,0
2022-09-28T04:03:19.099Z,0
2022-09-28T04:04:19.100Z,0
2022-09-28T04:05:19.117Z,0
2022-09-28T04:06:19.089Z,0
2022-09-28T04:07:19.103Z,0
2022-09-28T04:08:19.090Z,0
2022-09-28T04:09:19.232Z,0
2022-09-28T04:10:19.162Z,0
2022-09-28T04:11:19.182Z,0
2022-09-28T04:12:19.065Z,0
2022-09-28T04:13:19.210Z,0
2022-09-28T04:14:19.078Z,0
2022-09-28T04:15:19.093Z,0
2022-09-28T04:16:19.255Z,0
2022-09-28T04:17:19.101Z,0
2022-09-28T04:18:19.352Z,0
2022-09-28T04:19:19.128Z,0
2022-09-28T04:20:19.432Z,0
2022-09-28T04:21:19.702Z,0
2022-09-28T04:22:20.019Z,0
2022-09-28T04:23:19.104Z,0
2022-09-28T04:24:19.400Z,0
2022-09-28T04:25:19.114Z,0
2022-09-28T04:26:19.114Z,0
2022-09-28T04:27:19.408Z,0
2022-09-28T04:28:19.073Z,0
2022-09-28T04:29:19.764Z,0
2022-09-28T04:30:19.106Z,0
2022-09-28T04:31:19.154Z,0
2022-09-28T04:32:19.095Z,0
2022-09-28T04:33:19.099Z,0
2022-09-28T04:34:19.305Z,0
2022-09-28T04:35:19.087Z,0
2022-09-28T04:36:19.093Z,0
2022-09-28T04:37:19.090Z,0
2022-09-28T04:38:30.786Z,0
2022-09-28T04:39:19.311Z,0
2022-09-28T04:40:19.138Z,0
2022-09-28T04:41:19.061Z,0
2022-09-28T04:42:19.066Z,0
2022-09-28T04:43:19.396Z,0
2022-09-28T04:44:19.953Z,0
2022-09-28T04:45:20.332Z,0
2022-09-28T04:46:19.458Z,0.23
2022-09-28T04:47:19.091Z,0
2022-09-28T04:48:19.103Z,0
2022-09-28T04:49:19.139Z,0
2022-09-28T04:50:19.081Z,0.23
2022-09-28T04:51:19.079Z,0.23
2022-09-28T04:52:19.086Z,0.23
2022-09-28T04:53:19.108Z,0.23
2022-09-28T04:54:19.095Z,0.23
2022-09-28T04:55:19.097Z,0.23
2022-09-28T04:56:19.096Z,0.46
2022-09-28T04:57:19.088Z,0.69
2022-09-28T04:58:19.092Z,1.38
2022-09-28T04:59:19.101Z,2.3
2022-09-28T05:00:19.137Z,2.76
2022-09-28T05:01:19.223Z,3.22
2022-09-28T05:02:19.156Z,3.22
2022-09-28T05:03:19.098Z,3.91
2022-09-28T05:04:22.364Z,4.6
2022-09-28T05:05:19.123Z,5.06
2022-09-28T05:06:19.117Z,5.52
2022-09-28T05:07:19.099Z,7.36
2022-09-28T05:08:19.110Z,9.89
2022-09-28T05:09:19.086Z,36.67
2022-09-28T05:10:19.093Z,10.83
2022-09-28T05:11:19.087Z,12.5
2022-09-28T05:12:19.109Z,14.17
2022-09-28T05:13:19.099Z,15
2022-09-28T05:14:19.102Z,17.5
2022-09-28T05:15:19.106Z,20.83
2022-09-28T05:16:19.129Z,23.33
2022-09-28T05:17:19.115Z,30.83
2022-09-28T05:18:19.106Z,43.33
2022-09-28T05:19:19.152Z,56.67
2022-09-28T05:20:19.089Z,72.5
2022-09-28T05:21:19.156Z,84.17
2022-09-28T05:22:19.067Z,95
2022-09-28T05:23:19.288Z,100.83
2022-09-28T05:24:19.485Z,110.83
2022-09-28T05:25:19.107Z,101.67
2022-09-28T05:26:19.286Z,111.67
2022-09-28T05:27:19.486Z,121.67
2022-09-28T05:28:19.068Z,144.17
2022-09-28T05:29:19.099Z,150.83
2022-09-28T05:30:19.553Z,161.67
2022-09-28T05:31:19.121Z,171.67
2022-09-28T05:32:19.087Z,187.5
2022-09-28T05:33:19.103Z,205.83
2022-09-28T05:34:19.195Z,237.5
2022-09-28T05:35:19.069Z,276.67
2022-09-28T05:36:19.805Z,299.17
2022-09-28T05:37:19.506Z,330.83
2022-09-28T05:38:19.744Z,365
2022-09-28T05:39:19.109Z,411.67
2022-09-28T05:40:19.154Z,453.33
2022-09-28T05:41:19.098Z,469.17
2022-09-28T05:42:19.113Z,505
2022-09-28T05:43:19.084Z,516.67
2022-09-28T05:44:19.274Z,525
2022-09-28T05:45:19.179Z,558.33
2022-09-28T05:46:19.211Z,588.33
2022-09-28T05:47:19.086Z,671.67
2022-09-28T05:48:19.119Z,761.67
2022-09-28T05:49:19.122Z,820.83
2022-09-28T05:50:19.139Z,866.67
2022-09-28T05:51:19.122Z,875
2022-09-28T05:52:19.126Z,846.67
2022-09-28T05:53:19.099Z,953.33
2022-09-28T05:54:19.283Z,999.17
2022-09-28T05:55:19.102Z,978.33
2022-09-28T05:56:19.107Z,987.5
2022-09-28T05:57:19.121Z,1058.33
2022-09-28T05:58:19.095Z,1110
2022-09-28T05:59:19.089Z,1142.5
2022-09-28T06:00:19.091Z,1113.33
2022-09-28T06:01:19.133Z,1029.17
2022-09-28T06:02:19.176Z,1056.67
2022-09-28T06:03:19.217Z,1244.17
2022-09-28T06:04:19.245Z,1318.33
2022-09-28T06:05:19.096Z,1353.33
2022-09-28T06:06:19.084Z,1363.33
2022-09-28T06:07:19.092Z,1321.67
2022-09-28T06:08:19.118Z,1200
2022-09-28T06:09:21.654Z,1124.17
2022-09-28T06:10:19.069Z,1041.67
2022-09-28T06:11:19.098Z,1070
2022-09-28T06:12:19.113Z,1107.5
2022-09-28T06:13:19.118Z,1123.33
2022-09-28T06:14:19.097Z,1282.5
2022-09-28T06:15:19.100Z,1330
2022-09-28T06:16:19.142Z,1341.67
2022-09-28T06:17:19.096Z,1217.5
2022-09-28T06:18:19.124Z,1160
2022-09-28T06:19:19.088Z,1010
2022-09-28T06:20:19.101Z,803.33
2022-09-28T06:21:19.093Z,759.17
2022-09-28T06:22:19.091Z,642.5
2022-09-28T06:23:19.119Z,634.17
2022-09-28T06:24:19.303Z,726.67
2022-09-28T06:25:19.157Z,822.5
2022-09-28T06:26:19.098Z,925.83
2022-09-28T06:27:19.093Z,979.17
2022-09-28T06:28:19.125Z,964.17
2022-09-28T06:29:19.708Z,955
2022-09-28T06:30:19.094Z,1021.67
2022-09-28T06:31:19.109Z,1100.83
2022-09-28T06:32:19.096Z,1170
2022-09-28T06:33:19.091Z,1279.17
2022-09-28T06:34:19.265Z,1396.67
2022-09-28T06:35:19.107Z,1590.83
2022-09-28T06:36:19.088Z,1855.83
2022-09-28T06:37:19.174Z,2225
2022-09-28T06:38:19.103Z,2510.83
2022-09-28T06:39:19.167Z,2662.5
2022-09-28T06:40:19.157Z,2790
2022-09-28T06:41:19.197Z,2863.33
2022-09-28T06:42:19.090Z,2863.33
2022-09-28T06:43:19.240Z,2927.5
2022-09-28T06:44:19.239Z,2864.17
2022-09-28T06:45:19.445Z,2707.5
2022-09-28T06:46:19.433Z,2613.33
2022-09-28T06:47:19.143Z,2500
2022-09-28T06:48:19.430Z,2334.17
2022-09-28T06:49:19.652Z,2186.67
2022-09-28T06:50:19.303Z,1986.67
2022-09-28T06:51:19.527Z,2278.33
2022-09-28T06:52:19.069Z,3115.83
2022-09-28T06:53:19.131Z,3937.5
2022-09-28T06:54:19.490Z,4095.83
2022-09-28T06:55:19.702Z,3648.33
2022-09-28T06:56:20.232Z,3453.33
2022-09-28T06:57:20.080Z,3555
2022-09-28T06:58:19.067Z,3649.17
2022-09-28T06:59:19.155Z,3804.17
2022-09-28T07:00:19.239Z,3745
2022-09-28T07:01:19.495Z,3606.67
2022-09-28T07:02:19.226Z,3528.33
2022-09-28T07:03:19.371Z,3624.17
2022-09-28T07:04:19.253Z,3740.83
2022-09-28T07:05:19.098Z,3783.33
2022-09-28T07:06:19.088Z,4086.67
2022-09-28T07:07:19.097Z,4600
2022-09-28T07:08:19.102Z,5194.17
2022-09-28T07:09:29.043Z,5949.17
2022-09-28T07:10:19.098Z,6607.5
2022-09-28T07:11:19.083Z,6995
2022-09-28T07:12:19.094Z,7090
2022-09-28T07:13:41.980Z,7299.17
2022-09-28T07:14:34.429Z,7521.67
2022-09-28T07:15:19.090Z,8145
2022-09-28T07:16:22.827Z,8420.83
2022-09-28T07:17:19.148Z,8292.5
2022-09-28T07:18:19.351Z,8315
2022-09-28T07:19:19.109Z,8515
2022-09-28T07:20:19.712Z,8492.5
2022-09-28T07:21:27.010Z,8489.17
2022-09-28T07:22:23.623Z,8244.17
2022-09-28T07:23:19.746Z,7884.17
2022-09-28T07:24:19.336Z,7657.5
2022-09-28T07:25:19.085Z,7563.33
2022-09-28T07:26:21.811Z,7128.33
2022-09-28T07:27:19.099Z,6461.67
2022-09-28T07:28:19.114Z,6054.17
2022-09-28T07:29:19.080Z,5917.5
2022-09-28T07:30:19.097Z,5950.83
2022-09-28T07:31:19.156Z,6078.33
2022-09-28T07:32:19.132Z,6369.17
2022-09-28T07:33:19.081Z,6784.17
2022-09-28T07:34:19.239Z,6867.5
2022-09-28T07:35:19.098Z,6560
2022-09-28T07:36:19.093Z,6259.17
2022-09-28T07:37:19.091Z,5905.83
2022-09-28T07:38:19.122Z,5448.33
2022-09-28T07:39:19.100Z,4920
2022-09-28T07:40:19.129Z,4426.67
2022-09-28T07:41:19.087Z,3997.5
2022-09-28T07:42:19.092Z,3718.33
2022-09-28T07:43:19.097Z,3699.17
2022-09-28T07:44:19.269Z,3860
2022-09-28T07:45:19.099Z,4198.33
2022-09-28T07:46:19.183Z,4692.5
2022-09-28T07:47:19.100Z,5060
2022-09-28T07:48:19.108Z,5443.33
2022-09-28T07:49:19.196Z,5875.83
2022-09-28T07:50:19.317Z,6466.67
2022-09-28T07:51:19.094Z,7399.17
2022-09-28T07:52:19.090Z,8346.67
2022-09-28T07:53:19.091Z,8838.33
2022-09-28T07:54:19.090Z,9145.83
2022-09-28T07:55:19.218Z,9235.83
2022-09-28T07:56:19.186Z,8903.33
2022-09-28T07:57:19.390Z,8886.67
2022-09-28T07:58:19.632Z,9107.5
2022-09-28T07:59:20.137Z,9507.5
2022-09-28T08:00:19.454Z,9869.17
2022-09-28T08:01:19.203Z,9230
2022-09-28T08:02:19.145Z,9515.83
2022-09-28T08:03:19.094Z,9722.5
2022-09-28T08:04:19.097Z,10478.33
2022-09-28T08:05:19.093Z,10011.67
2022-09-28T08:06:19.100Z,8897.5
2022-09-28T08:07:22.875Z,8256.67
2022-09-28T08:08:19.105Z,7421.67
2022-09-28T08:09:19.159Z,7030
2022-09-28T08:10:19.109Z,6700.83
2022-09-28T08:11:19.119Z,6360.83
2022-09-28T08:12:19.081Z,6526.67
2022-09-28T08:13:19.727Z,6855
2022-09-28T08:14:19.122Z,7263.33
2022-09-28T08:15:19.100Z,7412.5
2022-09-28T08:16:19.223Z,7430.83
2022-09-28T08:17:19.095Z,6960.83
2022-09-28T08:18:19.098Z,6240
2022-09-28T08:19:19.290Z,5949.17
2022-09-28T08:20:19.099Z,6421.67
2022-09-28T08:21:19.104Z,7087.5
2022-09-28T08:22:19.112Z,7625
2022-09-28T08:23:19.100Z,8106.67
2022-09-28T08:24:19.237Z,8721.67
2022-09-28T08:25:19.092Z,8593.33
2022-09-28T08:26:19.111Z,8500
2022-09-28T08:27:19.095Z,8481.67
2022-09-28T08:28:19.099Z,8386.67
2022-09-28T08:29:19.086Z,8022.5
2022-09-28T08:30:19.103Z,7494.17
2022-09-28T08:31:19.135Z,7026.67
2022-09-28T08:32:19.085Z,7000
2022-09-28T08:33:19.197Z,7257.5
2022-09-28T08:34:19.344Z,7636.67
2022-09-28T08:35:19.100Z,7899.17
2022-09-28T08:36:19.161Z,7801.67
2022-09-28T08:37:19.293Z,7405
2022-09-28T08:38:19.451Z,7153.33
2022-09-28T08:39:19.332Z,7588.33
2022-09-28T08:40:19.223Z,8045.83
2022-09-28T08:41:19.098Z,8046.67
2022-09-28T08:42:19.076Z,9154.17
2022-09-28T08:43:19.337Z,10165.83
2022-09-28T08:44:19.604Z,10084.17
2022-09-28T08:45:19.136Z,10423.33
2022-09-28T08:46:23.780Z,11170.83
2022-09-28T08:47:19.579Z,12436.67
2022-09-28T08:48:19.506Z,13307.5
2022-09-28T08:49:30.703Z,12348.33
2022-09-28T08:50:19.136Z,12876.67
2022-09-28T08:51:19.117Z,12047.5
2022-09-28T08:52:19.107Z,10555.83
2022-09-28T08:53:19.101Z,12198.33
2022-09-28T08:54:19.201Z,13866.67
2022-09-28T08:55:19.154Z,12993.33
2022-09-28T08:56:19.099Z,14815
2022-09-28T08:57:19.130Z,13410.83
2022-09-28T08:58:19.092Z,12830.83
2022-09-28T08:59:19.100Z,12786.67
2022-09-28T09:00:19.130Z,11900.83
2022-09-28T09:01:19.139Z,10420.83
2022-09-28T09:02:19.130Z,9185
2022-09-28T09:03:19.091Z,8735.83
2022-09-28T09:04:19.236Z,8565
2022-09-28T09:05:19.125Z,7601.67
2022-09-28T09:06:19.363Z,7397.5
2022-09-28T09:07:19.121Z,8523.33
2022-09-28T09:08:19.099Z,9087.5
2022-09-28T09:09:19.096Z,8641.67
2022-09-28T09:10:19.091Z,8340
2022-09-28T09:11:19.156Z,8725.83
2022-09-28T09:12:19.086Z,9850.83
2022-09-28T09:13:19.098Z,10235
2022-09-28T09:14:19.118Z,10172.5
2022-09-28T09:15:19.123Z,10087.5
2022-09-28T09:16:19.151Z,10330.83
2022-09-28T09:17:19.137Z,10559.17
2022-09-28T09:18:19.890Z,10656.67
2022-09-28T09:19:19.089Z,10917.5
2022-09-28T09:20:19.094Z,10877.5
2022-09-28T09:21:19.101Z,10940.83
2022-09-28T09:22:19.089Z,10824.17
2022-09-28T09:23:19.090Z,10132.5
2022-09-28T09:24:19.204Z,9965.83
2022-09-28T09:25:19.119Z,10422.5
2022-09-28T09:26:23.423Z,11713.33
2022-09-28T09:27:19.109Z,12855
2022-09-28T09:28:19.119Z,13640.83
2022-09-28T09:29:19.095Z,13430.83
2022-09-28T09:30:20.391Z,11954.17
2022-09-28T09:31:22.526Z,9600
2022-09-28T09:32:19.090Z,7440
2022-09-28T09:33:19.089Z,6752.5
2022-09-28T09:34:19.196Z,6445.83
2022-09-28T09:35:20.769Z,7215.83
2022-09-28T09:36:19.095Z,8411.67
2022-09-28T09:37:19.091Z,9129.17
2022-09-28T09:38:19.453Z,10271.67
2022-09-28T09:39:19.111Z,11659.17
2022-09-28T09:40:19.213Z,12360
2022-09-28T09:41:19.095Z,12145.83
2022-09-28T09:42:19.134Z,12011.67
2022-09-28T09:43:19.088Z,12610
2022-09-28T09:44:19.169Z,12504.17
2022-09-28T09:45:19.100Z,12218.33
2022-09-28T09:46:19.134Z,12258.33
2022-09-28T09:47:19.177Z,12042.5
2022-09-28T09:48:19.116Z,12534.17
2022-09-28T09:49:19.088Z,14134.17
2022-09-28T09:50:19.229Z,14561.67
2022-09-28T09:51:19.068Z,13319.17
2022-09-28T09:52:19.134Z,10736.67
2022-09-28T09:53:19.427Z,9530
2022-09-28T09:54:19.282Z,11855.83
2022-09-28T09:55:19.423Z,9211.67
2022-09-28T09:56:19.091Z,8706.67
2022-09-28T09:57:19.305Z,8689.17
2022-09-28T09:58:19.085Z,8520.83
2022-09-28T09:59:19.194Z,8404.17
2022-09-28T10:00:19.307Z,8397.5
2022-09-28T10:01:19.185Z,8890.83
2022-09-28T10:02:19.116Z,9804.17
2022-09-28T10:03:19.171Z,11265
2022-09-28T10:04:19.070Z,12820.83
2022-09-28T10:05:19.175Z,15050.83
2022-09-28T10:06:19.187Z,18824.17
2022-09-28T10:07:19.471Z,15525.83
2022-09-28T10:08:19.692Z,16743.33
2022-09-28T10:09:19.522Z,20842.5
2022-09-28T10:10:19.181Z,15832.5
2022-09-28T10:11:19.637Z,15864.17
2022-09-28T10:12:19.203Z,14811.67
2022-09-28T10:13:19.388Z,13685
2022-09-28T10:14:19.158Z,15387.5
2022-09-28T10:15:19.141Z,15531.67
2022-09-28T10:16:19.322Z,14678.33
2022-09-28T10:17:19.090Z,12575.83
2022-09-28T10:18:19.090Z,12236.67
2022-09-28T10:19:19.132Z,11721.67
2022-09-28T10:20:19.106Z,12287.5
2022-09-28T10:21:19.107Z,14619.17
2022-09-28T10:22:19.102Z,12263.33
2022-09-28T10:23:19.100Z,11128.33
2022-09-28T10:24:19.090Z,10370
2022-09-28T10:25:19.083Z,9636.67
2022-09-28T10:26:22.838Z,9680.83
2022-09-28T10:27:19.097Z,9659.17
2022-09-28T10:28:19.145Z,10523.33
2022-09-28T10:29:19.310Z,11196.67
2022-09-28T10:30:19.141Z,11005
2022-09-28T10:31:19.145Z,13474.17
2022-09-28T10:32:19.100Z,10939.17
2022-09-28T10:33:19.169Z,12030
2022-09-28T10:34:19.219Z,10899.17
2022-09-28T10:35:19.139Z,11199.17
2022-09-28T10:36:19.111Z,17670.83
2022-09-28T10:37:19.121Z,10325.83
2022-09-28T10:38:19.120Z,9965
2022-09-28T10:39:19.080Z,12459.17
2022-09-28T10:40:19.156Z,14186.67
2022-09-28T10:41:19.107Z,12810.83
2022-09-28T10:42:19.125Z,11910.83
2022-09-28T10:43:19.132Z,11573.33
2022-09-28T10:44:19.367Z,10767.5
2022-09-28T10:45:19.096Z,10401.67
2022-09-28T10:46:19.183Z,10265.83
2022-09-28T10:47:19.107Z,9838.33
2022-09-28T10:48:19.090Z,10767.5
2022-09-28T10:49:19.084Z,9973.33
2022-09-28T10:50:19.097Z,10297.5
2022-09-28T10:51:19.111Z,10510
2022-09-28T10:52:19.107Z,11552.5
2022-09-28T10:53:19.104Z,11815
2022-09-28T10:54:19.263Z,14250.83
2022-09-28T10:55:19.254Z,12865.83
2022-09-28T10:56:19.088Z,14337.5
2022-09-28T10:57:19.096Z,16249.17
2022-09-28T10:58:19.644Z,18028.33
2022-09-28T10:59:19.657Z,27337.5
2022-09-28T11:00:19.679Z,23535.83
2022-09-28T11:01:19.718Z,32625.83
2022-09-28T11:02:19.702Z,33824.16
2022-09-28T11:03:19.127Z,31385
2022-09-28T11:04:19.184Z,19730
2022-09-28T11:05:19.111Z,19563.33
2022-09-28T11:06:19.105Z,24267.5
2022-09-28T11:07:19.103Z,18422.5
2022-09-28T11:08:19.122Z,17830
2022-09-28T11:09:19.137Z,17887.5
2022-09-28T11:10:19.080Z,22487.5
2022-09-28T11:11:19.099Z,16468.33
2022-09-28T11:12:19.090Z,15398.33
2022-09-28T11:13:19.119Z,13771.67
2022-09-28T11:14:19.114Z,12818.33
2022-09-28T11:15:19.089Z,13219.17
2022-09-28T11:16:19.183Z,14003.33
2022-09-28T11:17:19.226Z,15268.33
2022-09-28T11:18:19.114Z,16216.67
2022-09-28T11:19:19.199Z,17096.67
2022-09-28T11:20:21.487Z,18011.67
2022-09-28T11:21:19.093Z,16906.67
2022-09-28T11:22:19.110Z,16477.5
2022-09-28T11:23:19.141Z,16610.83
2022-09-28T11:24:19.683Z,16231.67
2022-09-28T11:25:19.100Z,15854.17
2022-09-28T11:26:19.153Z,15113.33
2022-09-28T11:27:19.098Z,15253.33
2022-09-28T11:28:19.151Z,20988.33
2022-09-28T11:29:19.338Z,18157.5
2022-09-28T11:30:19.101Z,21373.33
2022-09-28T11:31:19.168Z,15359.17
2022-09-28T11:32:19.099Z,14494.17
2022-09-28T11:33:19.126Z,14190
2022-09-28T11:34:19.247Z,14337.5
2022-09-28T11:35:19.088Z,14497.5
2022-09-28T11:36:19.099Z,15098.33
2022-09-28T11:37:19.095Z,19953.33
2022-09-28T11:38:19.158Z,12027.5
2022-09-28T11:39:19.195Z,15260.83
2022-09-28T11:40:19.154Z,18005.83
2022-09-28T11:41:19.100Z,17954.17
2022-09-28T11:42:19.096Z,17429.17
2022-09-28T11:43:19.126Z,17136.67
2022-09-28T11:44:19.308Z,15285.83
2022-09-28T11:45:19.067Z,16660
2022-09-28T11:46:19.205Z,18815.83
2022-09-28T11:47:19.063Z,16310.83
2022-09-28T11:48:19.204Z,13952.5
2022-09-28T11:49:19.119Z,14094.17
2022-09-28T11:50:23.663Z,15427.5
2022-09-28T11:51:19.117Z,16264.17
2022-09-28T11:52:19.156Z,28045
2022-09-28T11:53:19.584Z,17255.83
2022-09-28T11:54:19.177Z,18336.67
2022-09-28T11:55:19.170Z,18712.5
2022-09-28T11:56:19.405Z,14773.33
2022-09-28T11:57:19.161Z,15873.33
2022-09-28T11:58:19.160Z,16054.17
2022-09-28T11:59:19.450Z,22127.5
2022-09-28T12:00:19.134Z,17252.5
2022-09-28T12:01:19.411Z,32956.66
2022-09-28T12:02:19.367Z,21835.83
2022-09-28T12:03:19.173Z,28341.67
2022-09-28T12:04:19.202Z,13669.17
2022-09-28T12:05:20.995Z,12662.5
2022-09-28T12:06:19.099Z,13543.33
2022-09-28T12:07:19.092Z,13355.83
2022-09-28T12:08:19.087Z,28085.83
2022-09-28T12:09:19.202Z,11221.67
2022-09-28T12:10:19.119Z,10839.17
2022-09-28T12:11:19.099Z,13430.83
2022-09-28T12:12:19.161Z,15100
2022-09-28T12:13:19.098Z,14793.33
2022-09-28T12:14:19.102Z,14209.17
2022-09-28T12:15:19.094Z,17132.5
2022-09-28T12:16:38.676Z,31262.5
2022-09-28T12:17:20.179Z,11630.83
2022-09-28T12:18:19.100Z,21204.17
2022-09-28T12:19:19.291Z,30966.67
2022-09-28T12:20:19.100Z,32519.17
2022-09-28T12:21:19.099Z,31676.67
2022-09-28T12:22:19.087Z,30901.67
2022-09-28T12:23:19.109Z,32244.17
2022-09-28T12:24:19.157Z,32588.33
2022-09-28T12:25:19.097Z,33080
2022-09-28T12:26:19.118Z,32811.66
2022-09-28T12:27:19.105Z,33540
2022-09-28T12:28:19.094Z,34780.83
2022-09-28T12:29:19.250Z,35041.66
2022-09-28T12:30:19.096Z,35915.83
2022-09-28T12:31:19.183Z,35752.5
2022-09-28T12:32:19.095Z,36387.5
2022-09-28T12:33:19.109Z,36330.83
2022-09-28T12:34:19.096Z,36457.5
2022-09-28T12:35:19.106Z,34946.66
2022-09-28T12:36:19.097Z,34660
2022-09-28T12:37:19.085Z,32985
2022-09-28T12:38:19.097Z,35182.5
2022-09-28T12:39:27.427Z,35077.5
2022-09-28T12:40:19.115Z,35352.5
2022-09-28T12:41:19.095Z,36089.16
2022-09-28T12:42:19.088Z,36368.33
2022-09-28T12:43:19.093Z,35569.16
2022-09-28T12:44:19.101Z,35984.16
2022-09-28T12:45:19.124Z,36100.83
2022-09-28T12:46:19.159Z,35760
2022-09-28T12:47:19.092Z,35555.83
2022-09-28T12:48:19.091Z,36663.33
2022-09-28T12:50:38.393Z,36772.5
2022-09-28T12:51:19.091Z,36699.16
2022-09-28T12:52:19.119Z,31521.67
2022-09-28T12:53:19.085Z,36368.33
2022-09-28T12:54:19.287Z,29322.5
2022-09-28T12:55:19.251Z,21659.17
2022-09-28T12:56:21.685Z,8760
2022-09-28T12:57:19.313Z,10519.17
2022-09-28T12:58:19.200Z,20311.67
2022-09-28T12:59:19.663Z,35979.16
2022-09-28T13:00:19.317Z,23435
2022-09-28T13:01:19.770Z,25173.33
2022-09-28T13:02:19.997Z,8370.83
2022-09-28T13:03:19.197Z,27836.67
2022-09-28T13:04:19.512Z,15572.5
2022-09-28T13:05:19.130Z,25318.33